Time;durP1;ratioP1;P1;durP2;ratioP2;P2;SDS_P1;SDS_P2;PMS_P1;PMS_P2;Temp;Humidity;BMP_temperature;BMP_pressure;BME280_temperature;BME280_humidity;BME280_pressure;Samples;Min_cycle;Max_cycle;Signal;HPM_P1;HPM_P2
2023/08/05 00:02:06;;;;;;;;;;;15.40;99.90;;;;;;5115642;28;19973;-68
2023/08/05 00:04:33;;;;;;;;;;;15.30;99.90;;;;;;5114924;28;19924;-68
2023/08/05 00:07:00;;;;;;;;;;;15.20;99.90;;;;;;5112871;28;19928;-68
2023/08/05 00:09:28;;;;;;;;;;;15.20;99.90;;;;;;5097268;28;19924;-68
2023/08/05 00:11:55;;;;;;;;;;;15.20;99.90;;;;;;5114947;28;19930;-68
2023/08/05 00:14:21;;;;;;;;;;;15.20;99.90;;;;;;5115253;28;19924;-68
2023/08/05 00:16:48;;;;;;;;;;;15.10;99.90;;;;;;5096886;28;20018;-68
2023/08/05 00:19:15;;;;;;;;;;;15.10;99.90;;;;;;5096392;28;20290;-68
2023/08/05 00:21:41;;;;;;;;;;;15.10;99.90;;;;;;5097002;28;19924;-67
2023/08/05 00:24:08;;;;;;;;;;;15.00;99.90;;;;;;5115308;28;19973;-67
2023/08/05 00:26:36;;;;;;;;;;;15.00;99.90;;;;;;5113474;28;19938;-67
2023/08/05 00:29:03;;;;;;;;;;;15.00;99.90;;;;;;5096822;28;20367;-67
2023/08/05 00:31:30;;;;;;;;;;;15.00;99.90;;;;;;5112747;28;19931;-67
2023/08/05 00:33:56;;;;;;;;;;;15.00;99.90;;;;;;5114107;28;19924;-68
2023/08/05 00:36:23;;;;;;;;;;;15.00;99.90;;;;;;5112918;28;19928;-68
2023/08/05 00:38:50;;;;;;;;;;;14.90;99.90;;;;;;5096720;28;20411;-67
2023/08/05 00:41:16;;;;;;;;;;;14.90;99.90;;;;;;5095846;28;19930;-68
2023/08/05 00:43:44;;;;;;;;;;;14.90;99.90;;;;;;5096245;28;20379;-68
2023/08/05 00:46:12;;;;;;;;;;;14.90;99.90;;;;;;5114597;28;19924;-68
2023/08/05 00:48:38;;;;;;;;;;;14.80;99.90;;;;;;5113960;28;19931;-67
2023/08/05 00:51:06;;;;;;;;;;;14.70;99.90;;;;;;5096408;28;19923;-68
2023/08/05 00:53:33;;;;;;;;;;;14.70;99.90;;;;;;5095783;28;20441;-68
2023/08/05 00:55:59;;;;;;;;;;;14.70;99.90;;;;;;5094091;28;19928;-68
2023/08/05 00:58:27;;;;;;;;;;;14.60;99.90;;;;;;5114556;28;19923;-68
2023/08/05 01:00:55;;;;;;;;;;;14.60;99.90;;;;;;5113573;28;19983;-68
2023/08/05 01:03:22;;;;;;;;;;;14.60;99.90;;;;;;5114513;28;19923;-68
2023/08/05 01:05:50;;;;;;;;;;;14.60;99.90;;;;;;5111822;28;19977;-68
2023/08/05 01:08:17;;;;;;;;;;;14.60;99.90;;;;;;5113606;28;19931;-68
2023/08/05 01:10:44;;;;;;;;;;;14.60;99.90;;;;;;5114101;28;20341;-67
2023/08/05 01:13:11;;;;;;;;;;;14.60;99.90;;;;;;5095996;28;20611;-68
2023/08/05 01:15:38;;;;;;;;;;;14.60;99.90;;;;;;5113518;28;19924;-68
2023/08/05 01:18:07;;;;;;;;;;;14.50;99.90;;;;;;5114104;28;19932;-67
2023/08/05 01:20:35;;;;;;;;;;;14.50;99.90;;;;;;5113909;28;19989;-68
2023/08/05 01:23:08;;;;;;;;;;;14.40;99.90;;;;;;5092986;28;19980;-68
2023/08/05 01:25:37;;;;;;;;;;;14.40;99.90;;;;;;5114032;28;19924;-67
2023/08/05 01:28:04;;;;;;;;;;;14.40;99.90;;;;;;5113881;28;20355;-68
2023/08/05 01:30:32;;;;;;;;;;;14.30;99.90;;;;;;5113202;28;19927;-68
2023/08/05 01:33:00;;;;;;;;;;;14.30;99.90;;;;;;5113783;28;19931;-68
2023/08/05 01:35:26;;;;;;;;;;;14.20;99.90;;;;;;5111538;28;20295;-68
2023/08/05 01:37:53;;;;;;;;;;;14.20;99.90;;;;;;5112928;28;20352;-68
2023/08/05 01:40:20;;;;;;;;;;;14.10;99.90;;;;;;5112948;28;19934;-68
2023/08/05 01:42:48;;;;;;;;;;;14.00;99.90;;;;;;5112644;28;19932;-67
2023/08/05 01:45:15;;;;;;;;;;;14.00;99.90;;;;;;5113401;28;20390;-68
2023/08/05 01:47:42;;;;;;;;;;;13.90;99.90;;;;;;5113323;28;19938;-68
2023/08/05 01:50:09;;;;;;;;;;;13.80;99.90;;;;;;5094990;28;19927;-68
2023/08/05 01:52:35;;;;;;;;;;;13.80;99.90;;;;;;5113255;28;19943;-68
2023/08/05 01:55:02;;;;;;;;;;;13.70;99.90;;;;;;5112547;28;20348;-67
2023/08/05 01:57:29;;;;;;;;;;;14.50;99.90;;;;;;5112769;28;19932;-67
2023/08/05 01:59:57;;;;;;;;;;;13.60;99.90;;;;;;5095379;28;19931;-69
2023/08/05 02:02:24;;;;;;;;;;;13.50;99.90;;;;;;5112838;28;19947;-68
2023/08/05 02:04:50;;;;;;;;;;;13.50;99.90;;;;;;5094694;28;19977;-68
2023/08/05 02:07:17;;;;;;;;;;;13.40;99.90;;;;;;5113015;28;20402;-68
2023/08/05 02:09:44;;;;;;;;;;;13.40;99.90;;;;;;5094465;28;19924;-68
2023/08/05 02:12:11;;;;;;;;;;;13.30;99.90;;;;;;5112538;28;19931;-68
2023/08/05 02:14:38;;;;;;;;;;;13.30;99.90;;;;;;5113322;28;19948;-68
2023/08/05 02:17:06;;;;;;;;;;;13.20;99.90;;;;;;5094651;28;19924;-67
2023/08/05 02:19:33;;;;;;;;;;;13.20;99.90;;;;;;5112490;28;20345;-67
2023/08/05 02:22:00;;;;;;;;;;;13.20;99.90;;;;;;5111105;28;19973;-67
2023/08/05 02:24:26;;;;;;;;;;;13.10;99.90;;;;;;5095048;28;19973;-67
2023/08/05 02:26:53;;;;;;;;;;;13.00;99.90;;;;;;5109967;28;20375;-67
2023/08/05 02:29:20;;;;;;;;;;;13.00;99.90;;;;;;5094686;28;19990;-68
2023/08/05 02:31:47;;;;;;;;;;;13.00;99.90;;;;;;5094950;28;19977;-68
2023/08/05 02:34:15;;;;;;;;;;;12.90;99.90;;;;;;5094369;28;19930;-68
2023/08/05 02:36:41;;;;;;;;;;;12.90;99.90;;;;;;5094987;28;19924;-68
2023/08/05 02:39:08;;;;;;;;;;;12.90;99.90;;;;;;5093940;28;19924;-68
2023/08/05 02:41:35;;;;;;;;;;;12.80;99.90;;;;;;5094512;28;19939;-68
2023/08/05 02:44:02;;;;;;;;;;;12.80;99.90;;;;;;5094619;28;20333;-68
2023/08/05 02:46:28;;;;;;;;;;;12.80;99.90;;;;;;5110248;28;19924;-68
2023/08/05 02:48:55;;;;;;;;;;;12.70;99.90;;;;;;5094716;28;19935;-68
2023/08/05 02:51:23;;;;;;;;;;;12.70;99.90;;;;;;5095547;28;20432;-68
2023/08/05 02:53:50;;;;;;;;;;;12.70;99.90;;;;;;5116287;28;19930;-68
2023/08/05 02:56:16;;;;;;;;;;;12.70;99.90;;;;;;5098668;28;20371;-68
2023/08/05 02:58:43;;;;;;;;;;;12.70;99.90;;;;;;5098359;28;19927;-68
2023/08/05 03:01:10;;;;;;;;;;;12.70;99.90;;;;;;5116153;28;19924;-68
2023/08/05 03:03:37;;;;;;;;;;;12.70;99.90;;;;;;5098448;28;19932;-69
2023/08/05 03:06:04;;;;;;;;;;;12.70;99.90;;;;;;5098178;28;19923;-68
2023/08/05 03:08:32;;;;;;;;;;;12.80;99.90;;;;;;5115922;28;20010;-68
2023/08/05 03:10:59;;;;;;;;;;;12.80;99.90;;;;;;5116752;28;19924;-67
2023/08/05 03:13:26;;;;;;;;;;;12.90;99.90;;;;;;5116241;28;19932;-68
2023/08/05 03:15:53;;;;;;;;;;;13.00;99.90;;;;;;5115804;28;19931;-68
2023/08/05 03:18:20;;;;;;;;;;;13.00;99.90;;;;;;5116113;28;20387;-67
2023/08/05 03:20:48;;;;;;;;;;;13.10;99.90;;;;;;5116205;28;19923;-68
2023/08/05 03:23:15;;;;;;;;;;;13.10;99.90;;;;;;5115529;28;19924;-68
2023/08/05 03:25:43;;;;;;;;;;;13.10;99.90;;;;;;5116343;28;19928;-67
2023/08/05 03:28:09;;;;;;;;;;;13.20;99.90;;;;;;5097953;28;20398;-67
2023/08/05 03:30:36;;;;;;;;;;;13.20;99.90;;;;;;5115481;28;19923;-67
2023/08/05 03:33:03;;;;;;;;;;;13.20;99.90;;;;;;5114030;28;19924;-67
2023/08/05 03:35:30;;;;;;;;;;;13.20;99.90;;;;;;5097264;28;19924;-67
2023/08/05 03:37:56;;;;;;;;;;;13.30;99.90;;;;;;5116084;28;19923;-68
2023/08/05 03:40:23;;;;;;;;;;;13.30;99.90;;;;;;5115714;28;19930;-68
2023/08/05 03:42:51;;;;;;;;;;;13.30;99.90;;;;;;5096550;28;19931;-67
2023/08/05 03:45:18;;;;;;;;;;;13.30;99.90;;;;;;5097658;28;20283;-70
2023/08/05 03:47:46;;;;;;;;;;;13.30;99.90;;;;;;5097562;28;19923;-70
2023/08/05 03:50:13;;;;;;;;;;;13.30;99.90;;;;;;5115046;28;19993;-67
2023/08/05 03:52:40;;;;;;;;;;;13.30;99.90;;;;;;5115630;28;20399;-67
2023/08/05 03:55:07;;;;;;;;;;;13.70;99.90;;;;;;5115481;28;20405;-68
2023/08/05 03:57:33;;;;;;;;;;;13.40;99.90;;;;;;5115131;28;19931;-66
2023/08/05 04:00:02;;;;;;;;;;;13.30;99.90;;;;;;5115075;28;19924;-67
2023/08/05 04:02:29;;;;;;;;;;;13.40;99.90;;;;;;5113932;28;20283;-67
2023/08/05 04:04:55;;;;;;;;;;;13.40;99.90;;;;;;5112360;28;19931;-67
2023/08/05 04:07:24;;;;;;;;;;;13.40;99.90;;;;;;5115423;28;20345;-67
2023/08/05 04:09:51;;;;;;;;;;;13.40;99.90;;;;;;5096977;28;19932;-67
2023/08/05 04:12:18;;;;;;;;;;;13.40;99.90;;;;;;5096506;28;20302;-67
2023/08/05 04:14:45;;;;;;;;;;;13.40;99.90;;;;;;5115147;28;19924;-68
2023/08/05 04:17:14;;;;;;;;;;;13.40;99.90;;;;;;5096839;28;19939;-67
2023/08/05 04:19:41;;;;;;;;;;;13.40;99.90;;;;;;5114704;28;19931;-68
2023/08/05 04:22:08;;;;;;;;;;;13.40;99.90;;;;;;5115086;28;19924;-68
2023/08/05 04:24:35;;;;;;;;;;;13.40;99.90;;;;;;5096537;28;19992;-68
2023/08/05 04:27:02;;;;;;;;;;;13.50;99.90;;;;;;5096498;28;19928;-67
2023/08/05 04:29:29;;;;;;;;;;;13.50;99.90;;;;;;5114773;28;19931;-67
2023/08/05 04:31:56;;;;;;;;;;;13.50;99.90;;;;;;5096462;28;20291;-67
2023/08/05 04:34:24;;;;;;;;;;;13.60;99.90;;;;;;5114893;28;20303;-67
2023/08/05 04:36:51;;;;;;;;;;;13.60;99.90;;;;;;5096494;28;19930;-68
2023/08/05 04:39:18;;;;;;;;;;;13.70;99.90;;;;;;5096081;28;19924;-68
2023/08/05 04:41:45;;;;;;;;;;;13.70;99.90;;;;;;5114682;28;19923;-67
2023/08/05 04:44:12;;;;;;;;;;;13.70;99.90;;;;;;5096194;28;19950;-67
2023/08/05 04:46:39;;;;;;;;;;;13.80;99.90;;;;;;5114207;28;19930;-67
2023/08/05 04:49:08;;;;;;;;;;;13.80;99.90;;;;;;5096292;28;19993;-67
2023/08/05 04:51:36;;;;;;;;;;;13.90;99.90;;;;;;5114745;28;19977;-67
2023/08/05 04:54:03;;;;;;;;;;;13.90;99.90;;;;;;5113672;28;19989;-68
2023/08/05 04:56:30;;;;;;;;;;;14.00;99.90;;;;;;5096549;28;19924;-69
2023/08/05 04:58:56;;;;;;;;;;;14.00;99.90;;;;;;5114661;28;20280;-68
2023/08/05 05:01:23;;;;;;;;;;;14.10;99.90;;;;;;5095898;28;19923;-68
2023/08/05 05:03:51;;;;;;;;;;;14.20;99.90;;;;;;5096260;28;19932;-68
2023/08/05 05:06:18;;;;;;;;;;;14.30;99.90;;;;;;5102583;28;19939;-69
2023/08/05 05:08:46;;;;;;;;;;;14.50;99.90;;;;;;5090358;28;19988;-69
2023/08/05 05:11:12;;;;;;;;;;;14.50;99.90;;;;;;5095332;28;19973;-69
2023/08/05 05:13:39;;;;;;;;;;;14.60;99.90;;;;;;5093380;28;19931;-69
2023/08/05 05:16:06;;;;;;;;;;;14.90;99.90;;;;;;5111119;28;20010;-69
2023/08/05 05:18:33;;;;;;;;;;;15.20;99.90;;;;;;5093988;28;19924;-68
2023/08/05 05:21:01;;;;;;;;;;;15.20;99.90;;;;;;5111530;28;19931;-70
2023/08/05 05:23:28;;;;;;;;;;;14.40;99.90;;;;;;5093826;28;19924;-69
2023/08/05 05:25:57;;;;;;;;;;;15.40;99.90;;;;;;5110402;28;19931;-68
2023/08/05 05:28:23;;;;;;;;;;;15.40;99.90;;;;;;5118785;27;20345;-69
2023/08/05 05:30:50;;;;;;;;;;;15.50;99.90;;;;;;5112742;28;20048;-68
2023/08/05 05:33:17;;;;;;;;;;;15.60;99.90;;;;;;5109082;28;19924;-68
2023/08/05 05:35:43;;;;;;;;;;;15.70;99.90;;;;;;5087192;28;19931;-68
2023/08/05 05:38:11;;;;;;;;;;;15.70;99.90;;;;;;5104314;28;19923;-69
2023/08/05 05:40:39;;;;;;;;;;;15.80;99.90;;;;;;5094673;28;20364;-69
2023/08/05 05:43:08;;;;;;;;;;;15.80;99.90;;;;;;5111175;28;19965;-70
2023/08/05 05:45:35;;;;;;;;;;;15.90;99.90;;;;;;5111544;28;19923;-69
2023/08/05 05:48:02;;;;;;;;;;;16.10;99.90;;;;;;5111086;28;19951;-69
2023/08/05 05:50:29;;;;;;;;;;;16.20;99.90;;;;;;5111380;28;19977;-70
2023/08/05 05:52:56;;;;;;;;;;;16.20;99.90;;;;;;5093089;28;19939;-69
2023/08/05 05:55:23;;;;;;;;;;;16.20;99.90;;;;;;5092870;28;19924;-69
2023/08/05 05:57:49;;;;;;;;;;;16.20;99.90;;;;;;5109681;28;19935;-68
2023/08/05 06:00:18;;;;;;;;;;;16.10;99.90;;;;;;5092276;28;20364;-68
2023/08/05 06:02:44;;;;;;;;;;;16.20;99.90;;;;;;5110736;28;20011;-67
2023/08/05 06:05:11;;;;;;;;;;;16.20;99.90;;;;;;5110441;28;19924;-68
2023/08/05 06:07:38;;;;;;;;;;;16.50;99.90;;;;;;5112521;28;19924;-69
2023/08/05 06:10:06;;;;;;;;;;;16.60;99.90;;;;;;5110533;28;19966;-68
2023/08/05 06:12:36;;;;;;;;;;;16.70;99.90;;;;;;5112207;28;19928;-69
2023/08/05 06:15:03;;;;;;;;;;;16.90;99.90;;;;;;5108206;28;19923;-69
2023/08/05 06:17:31;;;;;;;;;;;16.90;99.90;;;;;;5093662;28;19931;-68
2023/08/05 06:19:57;;;;;;;;;;;17.10;99.90;;;;;;5109122;28;20410;-70
2023/08/05 06:22:24;;;;;;;;;;;17.30;99.90;;;;;;5092264;28;19931;-69
2023/08/05 06:24:51;;;;;;;;;;;17.60;99.90;;;;;;5089377;28;20367;-69
2023/08/05 06:27:18;;;;;;;;;;;17.70;99.90;;;;;;5096679;28;19928;-69
2023/08/05 06:29:45;;;;;;;;;;;17.80;99.90;;;;;;5096117;28;20272;-69
2023/08/05 06:32:12;;;;;;;;;;;17.90;99.90;;;;;;5097250;28;19977;-69
2023/08/05 06:34:40;;;;;;;;;;;17.70;99.90;;;;;;5113735;28;20010;-69
2023/08/05 06:37:07;;;;;;;;;;;17.90;99.90;;;;;;5115141;28;19938;-69
2023/08/05 06:39:33;;;;;;;;;;;18.10;99.90;;;;;;5113596;28;19993;-69
2023/08/05 06:42:00;;;;;;;;;;;18.00;99.90;;;;;;5096012;28;20408;-69
2023/08/05 06:44:27;;;;;;;;;;;18.10;99.90;;;;;;5097352;28;19932;-69
2023/08/05 06:46:54;;;;;;;;;;;18.40;99.90;;;;;;5108042;28;20434;-70
2023/08/05 06:49:21;;;;;;;;;;;18.70;99.90;;;;;;5095486;28;19930;-69
2023/08/05 06:51:50;;;;;;;;;;;19.20;99.90;;;;;;5110066;28;19924;-70
2023/08/05 06:54:17;;;;;;;;;;;19.60;99.90;;;;;;5103718;27;20649;-70
2023/08/05 06:56:44;;;;;;;;;;;19.90;99.90;;;;;;5090602;28;19923;-69
2023/08/05 06:59:11;;;;;;;;;;;20.40;99.90;;;;;;5108009;28;19924;-69
2023/08/05 07:01:41;;;;;;;;;;;21.10;99.90;;;;;;5093671;28;19939;-69
2023/08/05 07:04:07;;;;;;;;;;;21.50;99.90;;;;;;5097824;28;19959;-69
2023/08/05 07:06:34;;;;;;;;;;;21.60;99.90;;;;;;5095905;28;19930;-69
2023/08/05 07:09:03;;;;;;;;;;;21.20;99.90;;;;;;5094005;28;19931;-69
2023/08/05 07:11:30;;;;;;;;;;;20.80;99.90;;;;;;5087901;28;19963;-69
2023/08/05 07:13:57;;;;;;;;;;;20.60;99.90;;;;;;5074577;28;19939;-69
2023/08/05 07:16:24;;;;;;;;;;;20.20;99.90;;;;;;5075398;28;19932;-69
2023/08/05 07:18:50;;;;;;;;;;;19.90;99.90;;;;;;5078360;28;19950;-69
2023/08/05 07:21:17;;;;;;;;;;;19.70;99.90;;;;;;5074908;28;19924;-69
2023/08/05 07:23:44;;;;;;;;;;;19.50;99.90;;;;;;5097766;28;19930;-70
2023/08/05 07:26:12;;;;;;;;;;;19.30;99.90;;;;;;5094508;28;19927;-70
2023/08/05 07:28:39;;;;;;;;;;;19.20;99.90;;;;;;5106549;28;19939;-69
2023/08/05 07:31:07;;;;;;;;;;;19.20;99.90;;;;;;5107562;28;19931;-71
2023/08/05 07:33:33;;;;;;;;;;;19.10;99.90;;;;;;5099821;28;20583;-70
2023/08/05 07:36:07;;;;;;;;;;;19.30;99.90;;;;;;5096379;28;19976;-70
2023/08/05 07:38:35;;;;;;;;;;;19.30;99.90;;;;;;5109603;27;19931;-69
2023/08/05 07:41:02;;;;;;;;;;;19.20;99.90;;;;;;5097426;28;20018;-67
2023/08/05 07:43:33;;;;;;;;;;;19.20;99.90;;;;;;5096900;28;19930;-67
2023/08/05 07:45:59;;;;;;;;;;;19.10;99.90;;;;;;5097400;28;19924;-69
2023/08/05 07:48:27;;;;;;;;;;;19.20;99.90;;;;;;5097779;28;19924;-68
2023/08/05 07:50:53;;;;;;;;;;;19.30;99.90;;;;;;5114753;28;19980;-69
2023/08/05 07:53:23;;;;;;;;;;;19.40;99.90;;;;;;5097723;28;19924;-69
2023/08/05 07:55:52;;;;;;;;;;;19.50;99.90;;;;;;5096847;28;20379;-68
2023/08/05 07:58:19;;;;;;;;;;;19.70;99.90;;;;;;5115682;28;19976;-68
2023/08/05 08:00:47;;;;;;;;;;;19.70;99.90;;;;;;5115567;28;19938;-68
2023/08/05 08:03:14;;;;;;;;;;;19.80;99.90;;;;;;5115124;28;20393;-68
2023/08/05 08:05:40;;;;;;;;;;;19.90;99.90;;;;;;5096875;28;19928;-67
2023/08/05 08:08:07;;;;;;;;;;;20.10;99.90;;;;;;5097313;28;19924;-69
2023/08/05 08:10:34;;;;;;;;;;;20.30;99.90;;;;;;5114425;28;19927;-68
2023/08/05 08:13:01;;;;;;;;;;;20.40;99.90;;;;;;5115442;28;19923;-69
2023/08/05 08:15:28;;;;;;;;;;;20.40;99.90;;;;;;5115296;28;20010;-69
2023/08/05 08:17:56;;;;;;;;;;;20.40;99.90;;;;;;5114487;28;19969;-68
2023/08/05 08:20:22;;;;;;;;;;;20.30;99.90;;;;;;5112763;28;19954;-68
2023/08/05 08:22:49;;;;;;;;;;;20.20;99.90;;;;;;5114884;28;20410;-68
2023/08/05 08:25:16;;;;;;;;;;;20.20;99.90;;;;;;5114564;28;19969;-68
2023/08/05 08:27:42;;;;;;;;;;;20.10;99.90;;;;;;5096554;28;19932;-68
2023/08/05 08:30:11;;;;;;;;;;;20.40;99.90;;;;;;5096622;28;19924;-68
2023/08/05 08:32:38;;;;;;;;;;;20.90;99.90;;;;;;5114097;28;19938;-68
2023/08/05 08:35:06;;;;;;;;;;;21.70;99.90;;;;;;5114937;28;19935;-68
2023/08/05 08:37:33;;;;;;;;;;;22.00;99.90;;;;;;5114812;28;20379;-68
2023/08/05 08:40:00;;;;;;;;;;;22.00;99.90;;;;;;5114146;28;19923;-68
2023/08/05 08:42:27;;;;;;;;;;;22.10;99.90;;;;;;5114347;28;19973;-69
2023/08/05 08:44:54;;;;;;;;;;;22.20;99.90;;;;;;5114754;28;19924;-68
2023/08/05 08:47:21;;;;;;;;;;;22.60;99.90;;;;;;5112161;28;19931;-68
2023/08/05 08:49:48;;;;;;;;;;;23.10;99.90;;;;;;5114465;28;20395;-68
2023/08/05 08:52:18;;;;;;;;;;;23.60;99.90;;;;;;5114206;28;19939;-68
2023/08/05 08:54:45;;;;;;;;;;;23.70;99.90;;;;;;5096368;28;19928;-68
2023/08/05 08:57:13;;;;;;;;;;;24.60;99.90;;;;;;5096413;28;20325;-68
2023/08/05 08:59:40;;;;;;;;;;;25.10;99.90;;;;;;5095409;28;19931;-69
2023/08/05 09:02:11;;;;;;;;;;;25.40;97.50;;;;;;5095889;28;20391;-69
2023/08/05 09:04:39;;;;;;;;;;;25.60;97.20;;;;;;5114183;28;20442;-68
2023/08/05 09:07:06;;;;;;;;;;;25.40;96.60;;;;;;5113507;28;20043;-68
2023/08/05 09:09:34;;;;;;;;;;;24.70;96.00;;;;;;5114344;28;19923;-68
2023/08/05 09:12:01;;;;;;;;;;;24.40;96.90;;;;;;5096044;28;19923;-69
2023/08/05 09:14:28;;;;;;;;;;;23.80;97.90;;;;;;5095271;28;19976;-69
2023/08/05 09:16:59;;;;;;;;;;;23.30;98.20;;;;;;5093418;28;19935;-69
2023/08/05 09:19:26;;;;;;;;;;;23.60;98.40;;;;;;5113838;28;20410;-70
2023/08/05 09:21:53;;;;;;;;;;;23.80;97.20;;;;;;5113223;28;20280;-69
2023/08/05 09:24:23;;;;;;;;;;;23.40;97.20;;;;;;5114023;28;19947;-69
2023/08/05 09:26:56;;;;;;;;;;;23.20;98.00;;;;;;5113849;28;19973;-70
2023/08/05 09:29:24;;;;;;;;;;;23.50;98.50;;;;;;5094874;28;20014;-69
2023/08/05 09:31:57;;;;;;;;;;;24.10;98.10;;;;;;5113570;28;19924;-69
2023/08/05 09:34:31;;;;;;;;;;;24.80;96.60;;;;;;5111138;28;19924;-68
2023/08/05 09:36:58;;;;;;;;;;;25.00;95.30;;;;;;5093325;28;19928;-70
2023/08/05 09:39:26;;;;;;;;;;;25.40;95.00;;;;;;5095613;28;19923;-70
2023/08/05 09:41:56;;;;;;;;;;;25.30;94.10;;;;;;5094887;28;19927;-69
2023/08/05 09:44:22;;;;;;;;;;;24.90;93.80;;;;;;5113226;28;19924;-69
2023/08/05 09:46:51;;;;;;;;;;;24.50;95.40;;;;;;5113640;28;19924;-69
2023/08/05 09:49:20;;;;;;;;;;;24.10;95.20;;;;;;5112774;28;19932;-69
2023/08/05 09:51:48;;;;;;;;;;;24.60;95.60;;;;;;5113373;28;19923;-69
2023/08/05 09:54:18;;;;;;;;;;;25.20;93.90;;;;;;5095120;28;19924;-69
2023/08/05 09:56:45;;;;;;;;;;;25.20;92.60;;;;;;5112822;28;20268;-70
2023/08/05 09:59:14;;;;;;;;;;;25.30;93.00;;;;;;5112918;28;19930;-68
2023/08/05 10:01:41;;;;;;;;;;;25.90;93.10;;;;;;5112829;28;19935;-68
2023/08/05 10:04:09;;;;;;;;;;;25.90;92.50;;;;;;5112640;28;19931;-68
2023/08/05 10:06:37;;;;;;;;;;;26.60;91.90;;;;;;5113036;28;19932;-68
2023/08/05 10:09:04;;;;;;;;;;;27.00;90.70;;;;;;5113278;28;19946;-69
2023/08/05 10:11:32;;;;;;;;;;;26.90;89.70;;;;;;5112533;28;19947;-68
2023/08/05 10:14:01;;;;;;;;;;;26.80;89.40;;;;;;5095180;28;19931;-69
2023/08/05 10:16:30;;;;;;;;;;;27.20;89.20;;;;;;5094430;28;20398;-69
2023/08/05 10:18:57;;;;;;;;;;;27.00;89.90;;;;;;5112838;28;19924;-69
2023/08/05 10:21:36;;;;;;;;;;;26.80;90.30;;;;;;5112552;28;19924;-69
2023/08/05 10:24:03;;;;;;;;;;;26.70;89.60;;;;;;5112557;28;19967;-70
2023/08/05 10:26:38;;;;;;;;;;;27.10;89.40;;;;;;5112977;28;19931;-69
2023/08/05 10:29:19;;;;;;;;;;;27.50;88.20;;;;;;5083594;28;19931;-70
2023/08/05 10:31:48;;;;;;;;;;;27.30;89.90;;;;;;5106072;28;20384;-69
2023/08/05 10:34:18;;;;;;;;;;;27.10;88.50;;;;;;5109875;28;19954;-69
2023/08/05 10:36:45;;;;;;;;;;;27.10;90.10;;;;;;5093233;28;19931;-69
2023/08/05 10:39:31;;;;;;;;;;;26.70;88.20;;;;;;5111498;28;19932;-69
2023/08/05 10:41:58;;;;;;;;;;;26.00;90.00;;;;;;5093970;28;20367;-69
2023/08/05 10:44:35;;;;;;;;;;;25.60;89.80;;;;;;5111974;28;20379;-70
2023/08/05 10:47:04;;;;;;;;;;;25.70;90.10;;;;;;5093603;28;19936;-69
2023/08/05 10:49:31;;;;;;;;;;;25.60;89.50;;;;;;5093896;28;19927;-70
2023/08/05 10:51:58;;;;;;;;;;;25.50;90.20;;;;;;5092254;28;19927;-69
2023/08/05 10:54:25;;;;;;;;;;;25.30;91.00;;;;;;5094310;28;20047;-69
2023/08/05 10:56:51;;;;;;;;;;;25.20;90.90;;;;;;5109901;28;19977;-69
2023/08/05 10:59:18;;;;;;;;;;;25.60;92.20;;;;;;5093431;28;19981;-69
2023/08/05 11:01:55;;;;;;;;;;;26.30;91.70;;;;;;5090508;28;20444;-69
2023/08/05 11:04:29;;;;;;;;;;;26.20;91.40;;;;;;5092581;28;20023;-69
2023/08/05 11:06:56;;;;;;;;;;;26.60;90.80;;;;;;5109211;28;20018;-69
2023/08/05 11:09:23;;;;;;;;;;;27.00;90.60;;;;;;5109860;28;19924;-69
2023/08/05 11:11:50;;;;;;;;;;;26.80;90.00;;;;;;5117555;27;19947;-69
2023/08/05 11:14:17;;;;;;;;;;;27.10;90.60;;;;;;5120642;27;20383;-69
2023/08/05 11:16:45;;;;;;;;;;;26.70;89.70;;;;;;5115973;28;19931;-69
2023/08/05 11:19:11;;;;;;;;;;;26.30;90.70;;;;;;5098019;28;19930;-69
2023/08/05 11:21:43;;;;;;;;;;;26.10;90.50;;;;;;5097463;28;19973;-69
2023/08/05 11:24:16;;;;;;;;;;;26.10;91.60;;;;;;5116538;28;19927;-70
2023/08/05 11:26:43;;;;;;;;;;;25.90;90.50;;;;;;5095577;28;19928;-69
2023/08/05 11:29:10;;;;;;;;;;;25.90;91.30;;;;;;5116263;28;19928;-70
2023/08/05 11:31:37;;;;;;;;;;;25.80;91.20;;;;;;5116110;28;19934;-69
2023/08/05 11:34:03;;;;;;;;;;;25.70;91.00;;;;;;5115317;28;20382;-69
2023/08/05 11:36:30;;;;;;;;;;;25.80;91.10;;;;;;5098069;28;19931;-69
2023/08/05 11:39:00;;;;;;;;;;;25.90;91.30;;;;;;5115675;28;20631;-69
2023/08/05 11:41:27;;;;;;;;;;;25.30;91.40;;;;;;5097309;28;19928;-69
2023/08/05 11:43:54;;;;;;;;;;;25.20;91.30;;;;;;5097497;28;19931;-70
2023/08/05 11:46:25;;;;;;;;;;;24.70;91.60;;;;;;5097695;28;20010;-69
2023/08/05 11:49:05;;;;;;;;;;;24.50;92.30;;;;;;5097030;28;19969;-68
2023/08/05 11:51:43;;;;;;;;;;;24.50;92.20;;;;;;5116012;28;20299;-69
2023/08/05 11:54:11;;;;;;;;;;;24.30;92.90;;;;;;5115325;28;19924;-69
2023/08/05 11:56:38;;;;;;;;;;;24.10;92.50;;;;;;5096446;28;19931;-69
2023/08/05 11:59:05;;;;;;;;;;;23.90;92.30;;;;;;5115362;28;19930;-69
2023/08/05 12:01:35;;;;;;;;;;;23.60;92.80;;;;;;5114901;28;19931;-70
2023/08/05 12:04:07;;;;;;;;;;;23.20;93.80;;;;;;5115052;28;20359;-69
2023/08/05 12:06:33;;;;;;;;;;;23.20;94.40;;;;;;5095013;28;19924;-70
2023/08/05 12:09:01;;;;;;;;;;;22.80;94.10;;;;;;5096413;28;19923;-70
2023/08/05 12:11:29;;;;;;;;;;;22.60;95.10;;;;;;5115331;28;19940;-70
2023/08/05 12:13:58;;;;;;;;;;;22.50;95.20;;;;;;5114878;28;19924;-69
2023/08/05 12:16:29;;;;;;;;;;;22.50;95.90;;;;;;5094152;28;19928;-69
2023/08/05 12:18:56;;;;;;;;;;;22.40;95.40;;;;;;5096743;28;19939;-70
2023/08/05 12:21:23;;;;;;;;;;;22.40;95.90;;;;;;5115130;28;19927;-68
2023/08/05 12:23:49;;;;;;;;;;;22.20;96.00;;;;;;5113411;28;19950;-69
2023/08/05 12:26:25;;;;;;;;;;;22.00;96.30;;;;;;5096723;28;19924;-69
2023/08/05 12:28:53;;;;;;;;;;;21.80;97.10;;;;;;5096514;28;19924;-69
2023/08/05 12:31:20;;;;;;;;;;;21.60;97.70;;;;;;5095705;28;19936;-69
2023/08/05 12:33:47;;;;;;;;;;;21.50;97.90;;;;;;5114910;28;19931;-69
2023/08/05 12:36:13;;;;;;;;;;;21.40;98.50;;;;;;5114565;28;19932;-69
2023/08/05 12:38:40;;;;;;;;;;;21.30;98.90;;;;;;5095501;28;20258;-69
2023/08/05 12:41:07;;;;;;;;;;;21.10;99.20;;;;;;5095730;28;19936;-69
2023/08/05 12:43:33;;;;;;;;;;;21.00;99.80;;;;;;5096046;28;20299;-69
2023/08/05 12:46:02;;;;;;;;;;;21.00;99.90;;;;;;5113904;28;19973;-69
2023/08/05 12:48:28;;;;;;;;;;;20.90;99.90;;;;;;5096156;28;19935;-70
2023/08/05 12:50:55;;;;;;;;;;;20.80;99.90;;;;;;5114269;28;19931;-69
2023/08/05 12:53:22;;;;;;;;;;;20.90;99.90;;;;;;5095730;28;19924;-68
2023/08/05 12:55:49;;;;;;;;;;;20.90;99.90;;;;;;5114252;28;19938;-70
2023/08/05 12:58:15;;;;;;;;;;;21.00;99.90;;;;;;5113359;28;19976;-69
2023/08/05 13:00:42;;;;;;;;;;;21.00;99.90;;;;;;5114040;28;19949;-69
2023/08/05 13:03:10;;;;;;;;;;;21.00;99.90;;;;;;5113512;28;20363;-69
2023/08/05 13:05:37;;;;;;;;;;;21.00;99.90;;;;;;5113217;28;19923;-69
2023/08/05 13:08:04;;;;;;;;;;;21.00;99.90;;;;;;5114073;28;20333;-69
2023/08/05 13:10:31;;;;;;;;;;;21.00;99.90;;;;;;5095675;28;19949;-70
2023/08/05 13:12:58;;;;;;;;;;;21.00;99.90;;;;;;5095143;28;19924;-69
2023/08/05 13:15:24;;;;;;;;;;;20.90;99.90;;;;;;5093082;28;20375;-70
2023/08/05 13:17:51;;;;;;;;;;;20.90;99.90;;;;;;5095272;28;19924;-69
2023/08/05 13:20:19;;;;;;;;;;;20.70;99.90;;;;;;5112839;28;19932;-69
2023/08/05 13:22:46;;;;;;;;;;;20.70;99.90;;;;;;5113518;28;19931;-69
2023/08/05 13:25:13;;;;;;;;;;;20.50;99.90;;;;;;5095506;28;19931;-69
2023/08/05 13:27:39;;;;;;;;;;;20.30;99.90;;;;;;5112942;28;19924;-69
2023/08/05 13:30:07;;;;;;;;;;;20.40;99.90;;;;;;5095258;28;19935;-67
2023/08/05 13:32:34;;;;;;;;;;;20.20;99.90;;;;;;5095089;28;19923;-68
2023/08/05 13:35:00;;;;;;;;;;;20.10;99.90;;;;;;5105813;28;20010;-69
2023/08/05 13:37:29;;;;;;;;;;;20.00;99.90;;;;;;5107746;28;19931;-69
2023/08/05 13:39:55;;;;;;;;;;;19.90;99.90;;;;;;5092891;28;19975;-69
2023/08/05 13:42:22;;;;;;;;;;;20.00;99.90;;;;;;5112320;28;19977;-69
2023/08/05 13:44:49;;;;;;;;;;;19.90;99.90;;;;;;5092779;28;19927;-70
2023/08/05 13:47:15;;;;;;;;;;;19.90;99.90;;;;;;5094530;28;20036;-69
2023/08/05 13:49:42;;;;;;;;;;;19.90;99.90;;;;;;5110469;28;19923;-70
2023/08/05 13:52:09;;;;;;;;;;;20.00;99.90;;;;;;5094028;28;19935;-69
2023/08/05 13:54:37;;;;;;;;;;;19.80;99.90;;;;;;5090344;28;19924;-69
2023/08/05 13:57:04;;;;;;;;;;;19.90;99.90;;;;;;5111304;28;19931;-69
2023/08/05 13:59:32;;;;;;;;;;;19.80;99.90;;;;;;5108106;28;20353;-69
2023/08/05 14:01:58;;;;;;;;;;;19.80;99.90;;;;;;5091500;28;19929;-69
2023/08/05 14:04:25;;;;;;;;;;;20.00;99.90;;;;;;5092002;28;19923;-69
2023/08/05 14:06:52;;;;;;;;;;;20.10;99.90;;;;;;5111674;28;19935;-70
2023/08/05 14:09:19;;;;;;;;;;;20.20;99.90;;;;;;5109942;28;19934;-70
2023/08/05 14:11:47;;;;;;;;;;;20.20;99.90;;;;;;5110843;28;20023;-69
2023/08/05 14:14:14;;;;;;;;;;;20.30;99.90;;;;;;5110251;28;20409;-70
2023/08/05 14:16:40;;;;;;;;;;;20.30;99.90;;;;;;5110232;28;19973;-69
2023/08/05 14:19:07;;;;;;;;;;;20.40;99.90;;;;;;5109611;28;19923;-68